Time;durP1;ratioP1;P1;durP2;ratioP2;P2;SDS_P1;SDS_P2;PMS_P1;PMS_P2;Temp;Humidity;BMP_temperature;BMP_pressure;BME280_temperature;BME280_humidity;BME280_pressure;Samples;Min_cycle;Max_cycle;Signal;HPM_P1;HPM_P2
2021/04/23 00:00:44;;;;;;;26.57;19.37;;;9.50;71.90;;;;;;5034623;28;20025;-82
2021/04/23 00:03:30;;;;;;;29.43;21.27;;;9.50;72.10;;;;;;5015324;28;20026;-83
2021/04/23 00:06:17;;;;;;;25.77;19.43;;;9.50;72.20;;;;;;5025558;28;20037;-83
2021/04/23 00:08:52;;;;;;;31.00;23.03;;;9.50;72.10;;;;;;5034174;28;20029;-83
2021/04/23 00:11:35;;;;;;;26.47;20.07;;;9.40;72.10;;;;;;5030283;28;20039;-83
2021/04/23 00:14:05;;;;;;;28.27;21.83;;;9.30;72.40;;;;;;5031523;28;20056;-83
2021/04/23 00:16:31;;;;;;;28.30;20.77;;;9.40;72.30;;;;;;5034674;28;20071;-83
2021/04/23 00:18:57;;;;;;;28.87;22.03;;;9.50;72.20;;;;;;5022966;28;20485;-82
2021/04/23 00:21:23;;;;;;;27.87;22.40;;;9.50;72.00;;;;;;5020683;28;20028;-83
2021/04/23 00:23:50;;;;;;;31.07;23.27;;;9.60;71.60;;;;;;5035003;28;20401;-83
2021/04/23 00:26:16;;;;;;;32.10;22.13;;;9.50;71.70;;;;;;5034210;28;20026;-83
2021/04/23 00:28:42;;;;;;;28.80;20.80;;;9.60;71.80;;;;;;5032087;28;20022;-83
2021/04/23 00:31:09;;;;;;;28.90;21.53;;;9.60;71.80;;;;;;5033487;28;20075;-83
2021/04/23 00:33:35;;;;;;;27.93;20.80;;;9.60;71.60;;;;;;5033872;28;20029;-83
2021/04/23 00:36:00;;;;;;;27.83;22.33;;;9.60;71.60;;;;;;5034171;28;20128;-83
2021/04/23 00:38:28;;;;;;;30.27;22.47;;;9.70;71.70;;;;;;5033109;28;20116;-83
2021/04/23 00:41:05;;;;;;;28.57;22.90;;;9.70;71.40;;;;;;5034174;28;20104;-83
2021/04/23 00:43:34;;;;;;;30.70;22.83;;;9.70;71.60;;;;;;5032705;28;20030;-83
2021/04/23 00:46:00;;;;;;;30.70;22.50;;;9.70;71.80;;;;;;5025143;28;20030;-83
2021/04/23 00:48:28;;;;;;;28.13;21.27;;;9.70;71.80;;;;;;5031293;28;20075;-83
2021/04/23 00:51:02;;;;;;;27.57;20.17;;;9.70;71.70;;;;;;5027461;28;20029;-84
2021/04/23 00:53:31;;;;;;;23.50;18.17;;;9.80;71.50;;;;;;5021647;28;20151;-83
2021/04/23 00:56:01;;;;;;;24.20;17.57;;;9.80;71.10;;;;;;5021541;28;20050;-83
2021/04/23 00:58:28;;;;;;;25.20;18.40;;;9.70;70.70;;;;;;5034530;28;20030;-83
2021/04/23 01:01:06;;;;;;;24.53;17.77;;;9.70;70.60;;;;;;5017323;28;20029;-83
2021/04/23 01:03:33;;;;;;;21.93;17.30;;;9.70;70.20;;;;;;5016531;28;20405;-83
2021/04/23 01:06:00;;;;;;;22.93;17.23;;;9.70;70.00;;;;;;5031643;28;20031;-83
2021/04/23 01:08:27;;;;;;;26.53;19.03;;;9.50;70.10;;;;;;5030364;28;20025;-83
2021/04/23 01:10:55;;;;;;;25.07;18.67;;;9.60;70.20;;;;;;5023482;28;20026;-83
2021/04/23 01:13:22;;;;;;;27.07;18.50;;;9.60;70.10;;;;;;5028572;28;20037;-83
2021/04/23 01:15:48;;;;;;;22.00;17.13;;;9.70;69.90;;;;;;5029728;28;20041;-84
2021/04/23 01:18:14;;;;;;;23.23;17.90;;;9.70;69.80;;;;;;5031866;28;20029;-83
2021/04/23 01:20:40;;;;;;;24.77;18.50;;;9.70;69.60;;;;;;5031508;28;20036;-83
2021/04/23 01:23:05;;;;;;;23.83;17.37;;;9.60;69.60;;;;;;5025149;28;20041;-84
2021/04/23 01:25:31;;;;;;;23.33;17.63;;;9.60;69.60;;;;;;5023046;28;20513;-84
2021/04/23 01:27:58;;;;;;;27.00;19.67;;;9.60;69.60;;;;;;5017125;28;20489;-83
2021/04/23 01:30:48;;;;;;;23.50;17.37;;;9.50;69.80;;;;;;5026889;28;20032;-83
2021/04/23 01:33:13;;;;;;;25.13;17.13;;;9.50;69.80;;;;;;5031671;28;20040;-83
2021/04/23 01:35:39;;;;;;;24.20;18.27;;;9.50;69.80;;;;;;5032706;28;20393;-83
2021/04/23 01:38:05;;;;;;;21.73;17.27;;;9.50;70.10;;;;;;5024285;28;20029;-83
2021/04/23 01:40:31;;;;;;;24.53;18.20;;;9.50;69.90;;;;;;5032990;28;20112;-83
2021/04/23 01:42:56;;;;;;;22.53;16.90;;;9.50;69.80;;;;;;5033764;28;20033;-83
2021/04/23 01:45:22;;;;;;;22.77;17.50;;;9.50;69.60;;;;;;5033079;28;20025;-83
2021/04/23 01:47:48;;;;;;;21.50;16.17;;;9.50;69.60;;;;;;5022854;28;20539;-82
2021/04/23 01:50:20;;;;;;;27.00;17.50;;;9.60;69.40;;;;;;5031704;28;20025;-83
2021/04/23 01:52:48;;;;;;;21.88;17.00;;;9.50;69.00;;;;;;5028599;28;20029;-83
2021/04/23 01:55:19;;;;;;;26.77;18.63;;;9.50;69.00;;;;;;5030846;28;20044;-82
2021/04/23 01:57:46;;;;;;;22.80;17.57;;;9.50;68.90;;;;;;5032467;28;20129;-83
2021/04/23 02:00:30;;;;;;;23.13;16.87;;;9.60;68.80;;;;;;5032613;28;20061;-83
2021/04/23 02:03:00;;;;;;;22.70;15.43;;;9.50;68.40;;;;;;5029936;28;20029;-83
2021/04/23 02:05:27;;;;;;;29.97;19.97;;;9.40;68.30;;;;;;5032951;28;20052;-82
2021/04/23 02:07:54;;;;;;;21.73;15.30;;;9.20;68.40;;;;;;5033030;28;20101;-83
2021/04/23 02:10:26;;;;;;;23.10;15.77;;;9.20;68.50;;;;;;5031644;28;20470;-82
2021/04/23 02:12:51;;;;;;;22.67;15.47;;;9.20;68.70;;;;;;5032126;28;20821;-83
2021/04/23 02:15:19;;;;;;;19.07;13.67;;;9.20;68.30;;;;;;5032509;28;20029;-82
2021/04/23 02:17:45;;;;;;;20.83;14.90;;;9.10;68.10;;;;;;5032145;28;20103;-83
2021/04/23 02:20:19;;;;;;;20.80;14.93;;;9.10;68.20;;;;;;5024304;28;20033;-82
2021/04/23 02:22:46;;;;;;;21.20;16.10;;;9.20;68.30;;;;;;5032218;28;20070;-83
2021/04/23 02:25:13;;;;;;;21.53;15.47;;;9.20;68.10;;;;;;5029411;28;20049;-83
2021/04/23 02:27:40;;;;;;;22.20;16.00;;;9.20;68.10;;;;;;5033252;28;20021;-83
2021/04/23 02:30:12;;;;;;;19.20;15.03;;;9.30;68.00;;;;;;5031415;28;20033;-83
2021/04/23 02:32:38;;;;;;;19.73;14.60;;;9.30;67.70;;;;;;5032479;28;20469;-83
2021/04/23 02:35:09;;;;;;;20.87;14.27;;;9.20;67.70;;;;;;5032857;28;20048;-82
2021/04/23 02:37:36;;;;;;;25.77;16.17;;;9.10;67.70;;;;;;5020705;28;20029;-82
2021/04/23 02:40:05;;;;;;;19.17;14.57;;;9.20;67.90;;;;;;5021108;28;20433;-83
2021/04/23 02:42:32;;;;;;;20.37;14.63;;;9.20;67.80;;;;;;5026834;28;20021;-83
2021/04/23 02:44:58;;;;;;;21.37;14.80;;;9.20;67.60;;;;;;5031876;28;20074;-83
2021/04/23 02:47:23;;;;;;;21.63;16.17;;;9.20;67.70;;;;;;5031157;28;20061;-83
2021/04/23 02:49:49;;;;;;;22.67;15.87;;;9.30;67.60;;;;;;5023119;28;20166;-83
2021/04/23 02:52:16;;;;;;;21.87;15.50;;;9.30;67.60;;;;;;5024361;28;20040;-83
2021/04/23 02:54:42;;;;;;;21.80;15.27;;;9.20;67.10;;;;;;5028660;28;20056;-83
2021/04/23 02:57:08;;;;;;;20.13;15.17;;;9.10;67.50;;;;;;5028157;28;20030;-83
2021/04/23 02:59:34;;;;;;;19.67;14.43;;;9.10;67.80;;;;;;5031896;28;20053;-85
2021/04/23 03:02:00;;;;;;;21.37;14.53;;;9.10;67.70;;;;;;5028584;28;20029;-83
2021/04/23 03:04:27;;;;;;;20.13;14.23;;;9.20;67.60;;;;;;5031294;28;20025;-83
2021/04/23 03:06:54;;;;;;;21.23;14.50;;;9.20;67.20;;;;;;5031550;28;20056;-82
2021/04/23 03:09:19;;;;;;;24.17;14.37;;;9.00;66.90;;;;;;5015317;28;20037;-83
2021/04/23 03:11:45;;;;;;;21.10;14.37;;;9.00;67.30;;;;;;5028542;28;20071;-82
2021/04/23 03:14:11;;;;;;;21.43;14.67;;;9.00;67.20;;;;;;5031144;28;20496;-83
2021/04/23 03:16:41;;;;;;;22.13;14.50;;;9.00;66.90;;;;;;5033034;28;20022;-83
2021/04/23 03:19:21;;;;;;;20.60;15.37;;;9.00;67.10;;;;;;5032474;28;20033;-83
2021/04/23 03:21:52;;;;;;;20.63;15.33;;;9.00;66.70;;;;;;5030233;28;20481;-83
2021/04/23 03:24:19;;;;;;;20.20;13.93;;;8.90;67.30;;;;;;5031276;28;20022;-83
2021/04/23 03:26:46;;;;;;;21.43;14.37;;;8.90;67.50;;;;;;5030686;28;20581;-83
2021/04/23 03:29:13;;;;;;;20.63;14.87;;;8.80;67.30;;;;;;5030304;28;20120;-83
2021/04/23 03:31:39;;;;;;;18.20;14.03;;;8.90;67.50;;;;;;5031264;28;20025;-83
2021/04/23 03:34:06;;;;;;;19.77;14.60;;;8.90;67.20;;;;;;5030398;28;20037;-82
2021/04/23 03:36:32;;;;;;;20.87;14.43;;;8.90;67.20;;;;;;5030291;28;20124;-82
2021/04/23 03:38:58;;;;;;;19.13;14.37;;;8.90;67.20;;;;;;5032469;28;20029;-83
2021/04/23 03:41:29;;;;;;;20.33;15.60;;;9.00;67.10;;;;;;5028387;28;20029;-82
2021/04/23 03:43:56;;;;;;;20.77;13.37;;;9.00;66.80;;;;;;5031739;28;20029;-83
2021/04/23 03:46:22;;;;;;;22.90;14.70;;;8.90;66.90;;;;;;5028577;28;20117;-82
2021/04/23 03:48:48;;;;;;;20.10;14.40;;;8.90;67.10;;;;;;5031079;28;20080;-82
2021/04/23 03:51:15;;;;;;;19.60;14.27;;;8.90;67.20;;;;;;5025202;28;20030;-82
2021/04/23 03:53:41;;;;;;;18.97;13.43;;;9.00;67.20;;;;;;5030981;28;20076;-82
2021/04/23 03:56:08;;;;;;;20.83;15.13;;;9.10;67.00;;;;;;5029998;28;20060;-83
2021/04/23 03:58:34;;;;;;;18.53;14.37;;;9.10;67.00;;;;;;5026817;28;20036;-82
2021/04/23 04:01:11;;;;;;;22.87;13.87;;;9.10;66.90;;;;;;5028097;28;20060;-82
2021/04/23 04:03:37;;;;;;;19.47;14.30;;;9.10;66.80;;;;;;5037655;28;20038;-82
2021/04/23 04:06:05;;;;;;;20.83;13.83;;;9.10;66.80;;;;;;5030701;28;20026;-82
2021/04/23 04:08:32;;;;;;;17.53;12.93;;;9.10;66.70;;;;;;5021526;28;20029;-82
2021/04/23 04:11:07;;;;;;;19.90;14.33;;;9.10;66.50;;;;;;5020009;28;20412;-82
2021/04/23 04:13:33;;;;;;;18.70;13.53;;;9.10;66.50;;;;;;5030898;28;20034;-82
2021/04/23 04:16:00;;;;;;;19.60;13.30;;;9.10;66.40;;;;;;5025475;28;20034;-83
2021/04/23 04:18:26;;;;;;;20.90;13.60;;;9.00;66.40;;;;;;5025345;28;20037;-83
2021/04/23 04:20:53;;;;;;;19.73;13.30;;;9.10;66.70;;;;;;5019996;28;20035;-82
2021/04/23 04:23:20;;;;;;;21.90;14.13;;;9.10;66.60;;;;;;5034420;28;20021;-82
2021/04/23 04:25:52;;;;;;;18.90;13.03;;;9.10;66.70;;;;;;5047305;28;20362;-82
2021/04/23 04:28:18;;;;;;;21.17;13.80;;;9.10;66.50;;;;;;5016905;28;20026;-82
2021/04/23 04:30:44;;;;;;;18.93;13.57;;;9.10;66.50;;;;;;5030209;28;20021;-82
2021/04/23 04:33:12;;;;;;;18.77;12.90;;;9.10;66.60;;;;;;5035677;28;20021;-82
2021/04/23 04:35:39;;;;;;;19.53;12.73;;;9.00;66.70;;;;;;5033215;28;20030;-83
2021/04/23 04:38:19;;;;;;;18.30;12.23;;;9.00;66.90;;;;;;5033219;28;20057;-82
2021/04/23 04:40:47;;;;;;;20.53;13.40;;;9.10;66.80;;;;;;5034305;28;20044;-82
2021/04/23 04:43:15;;;;;;;19.30;13.00;;;9.00;66.70;;;;;;5034436;28;20105;-82
2021/04/23 04:45:42;;;;;;;20.33;12.17;;;9.00;66.70;;;;;;5034679;28;20520;-82
2021/04/23 04:48:08;;;;;;;18.83;11.73;;;9.10;66.70;;;;;;5034535;28;20021;-82
2021/04/23 04:50:44;;;;;;;16.27;12.40;;;9.10;66.50;;;;;;5033846;28;20393;-82
2021/04/23 04:53:11;;;;;;;18.53;12.33;;;9.10;66.30;;;;;;5022756;28;20021;-82
2021/04/23 04:55:40;;;;;;;18.67;11.77;;;9.10;66.20;;;;;;5031041;28;20094;-82
2021/04/23 04:58:08;;;;;;;16.17;11.53;;;9.10;66.10;;;;;;5022884;28;21198;-82
2021/04/23 05:00:35;;;;;;;16.70;12.40;;;9.10;66.00;;;;;;5029046;28;20120;-82
2021/04/23 05:03:01;;;;;;;16.63;11.07;;;9.10;66.00;;;;;;5021842;28;20524;-83
2021/04/23 05:05:28;;;;;;;15.60;11.37;;;9.20;66.00;;;;;;5018609;28;20028;-82
2021/04/23 05:07:54;;;;;;;14.90;11.20;;;9.20;65.90;;;;;;5033750;28;20032;-82
2021/04/23 05:10:21;;;;;;;16.37;11.07;;;9.20;65.90;;;;;;5034311;28;20033;-82
2021/04/23 05:12:46;;;;;;;15.50;11.47;;;9.20;65.90;;;;;;5029721;28;20026;-82
2021/04/23 05:15:14;;;;;;;16.70;11.27;;;9.20;65.80;;;;;;5033001;28;20032;-82
2021/04/23 05:17:39;;;;;;;19.37;12.17;;;9.20;65.70;;;;;;5032960;28;20037;-82
2021/04/23 05:20:06;;;;;;;15.40;11.43;;;9.20;65.60;;;;;;5033161;28;20029;-82
2021/04/23 05:22:35;;;;;;;19.37;11.47;;;9.20;65.60;;;;;;5032611;28;20111;-82
2021/04/23 05:25:04;;;;;;;16.80;11.67;;;9.20;65.50;;;;;;5019173;28;20101;-82
2021/04/23 05:27:29;;;;;;;16.80;11.90;;;9.20;65.50;;;;;;5025419;28;20052;-82
2021/04/23 05:29:55;;;;;;;17.87;11.37;;;9.20;65.50;;;;;;5032912;28;20026;-82
2021/04/23 05:32:21;;;;;;;17.30;11.37;;;9.20;65.60;;;;;;5034286;28;20044;-82
2021/04/23 05:34:50;;;;;;;18.67;10.97;;;9.20;65.40;;;;;;5045631;28;20033;-82
2021/04/23 05:37:16;;;;;;;18.30;11.33;;;9.10;64.80;;;;;;5035476;28;20057;-82
2021/04/23 05:39:44;;;;;;;16.33;10.90;;;9.10;65.40;;;;;;5032974;28;20029;-82
2021/04/23 05:42:11;;;;;;;16.10;9.97;;;9.00;65.00;;;;;;5032916;28;20116;-82
2021/04/23 05:44:37;;;;;;;15.67;9.97;;;8.90;65.00;;;;;;5020205;28;20465;-82
2021/04/23 05:47:04;;;;;;;16.90;9.93;;;9.00;64.80;;;;;;5029056;28;20040;-82
2021/04/23 05:49:31;;;;;;;16.63;11.07;;;8.90;64.80;;;;;;5032881;28;20044;-82
2021/04/23 05:51:57;;;;;;;15.43;9.57;;;8.90;64.60;;;;;;5033029;28;20029;-82
2021/04/23 05:54:24;;;;;;;15.73;9.70;;;9.00;64.80;;;;;;5022437;28;20470;-82
2021/04/23 05:56:49;;;;;;;16.97;11.03;;;9.00;64.70;;;;;;5030087;28;20135;-82
2021/04/23 05:59:16;;;;;;;14.17;9.40;;;9.00;64.70;;;;;;5031098;28;20485;-82
2021/04/23 06:02:11;;;;;;;16.83;10.60;;;9.10;64.70;;;;;;5033359;28;20508;-82
2021/04/23 06:04:37;;;;;;;17.00;9.23;;;9.10;64.50;;;;;;5037181;28;20385;-82
2021/04/23 06:07:06;;;;;;;13.83;9.50;;;9.20;64.50;;;;;;5030934;28;20109;-82
2021/04/23 06:09:32;;;;;;;19.27;11.30;;;9.30;64.50;;;;;;5026808;28;20026;-82
2021/04/23 06:11:58;;;;;;;16.93;11.33;;;9.40;64.50;;;;;;5034107;28;20559;-82
2021/04/23 06:14:23;;;;;;;16.43;12.10;;;9.40;64.40;;;;;;5028731;28;20120;-81
2021/04/23 06:16:52;;;;;;;16.43;11.70;;;9.50;64.60;;;;;;5028727;28;20037;-82
2021/04/23 06:19:19;;;;;;;16.77;11.70;;;9.60;64.60;;;;;;5032587;28;20029;-82
2021/04/23 06:21:51;;;;;;;18.03;12.80;;;9.60;64.40;;;;;;5033471;28;20123;-82
2021/04/23 06:24:17;;;;;;;19.65;13.05;;;9.60;64.20;;;;;;5032872;28;20381;-82
2021/04/23 06:26:51;;;;;;;18.80;12.23;;;9.60;64.30;;;;;;5023919;28;20025;-82
2021/04/23 06:29:17;;;;;;;15.63;11.40;;;9.60;64.40;;;;;;5031293;28;20428;-82
2021/04/23 06:31:43;;;;;;;28.70;12.77;;;9.70;64.50;;;;;;5031139;28;20033;-82
2021/04/23 06:34:08;;;;;;;17.53;13.07;;;9.70;64.40;;;;;;5025579;28;20239;-82
2021/04/23 06:36:38;;;;;;;23.90;13.50;;;9.80;64.70;;;;;;5032300;28;20071;-82
2021/04/23 06:39:15;;;;;;;19.10;13.80;;;9.80;65.00;;;;;;5031590;28;20037;-82
2021/04/23 06:41:41;;;;;;;21.93;13.77;;;9.80;65.20;;;;;;5032333;28;20412;-82
2021/04/23 06:44:14;;;;;;;21.50;14.70;;;9.90;65.10;;;;;;5038187;28;20017;-82
2021/04/23 06:46:43;;;;;;;17.97;13.30;;;10.00;65.20;;;;;;5033291;28;20032;-82
2021/04/23 06:49:13;;;;;;;22.20;15.00;;;10.10;65.00;;;;;;5030613;28;20017;-82
2021/04/23 06:51:42;;;;;;;23.97;15.33;;;10.20;64.90;;;;;;5025554;28;20441;-82
2021/04/23 06:54:08;;;;;;;25.20;15.43;;;10.20;64.90;;;;;;5025938;28;20916;-83
2021/04/23 06:56:34;;;;;;;26.53;19.13;;;10.30;64.80;;;;;;5030327;28;20033;-83
2021/04/23 06:59:00;;;;;;;28.90;19.10;;;10.30;64.60;;;;;;5024834;28;20030;-82
2021/04/23 07:01:26;;;;;;;30.13;21.13;;;10.20;64.60;;;;;;5023866;28;20033;-82
2021/04/23 07:03:52;;;;;;;31.03;21.50;;;10.10;64.90;;;;;;5031831;28;20029;-82
2021/04/23 07:06:18;;;;;;;33.77;23.63;;;10.10;65.40;;;;;;5030186;28;20029;-82
2021/04/23 07:08:43;;;;;;;37.53;24.00;;;10.10;65.60;;;;;;5033013;28;20470;-82
2021/04/23 07:11:09;;;;;;;33.60;24.03;;;10.20;65.80;;;;;;5022624;28;20030;-82
2021/04/23 07:13:35;;;;;;;38.03;23.53;;;10.30;65.70;;;;;;5031807;28;20037;-83
2021/04/23 07:16:01;;;;;;;34.53;24.47;;;10.50;65.90;;;;;;5031071;28;20060;-82
2021/04/23 07:18:27;;;;;;;36.37;24.87;;;10.60;65.70;;;;;;5030888;28;20061;-82
2021/04/23 07:20:54;;;;;;;32.53;22.30;;;10.80;65.60;;;;;;5032236;28;20095;-82
2021/04/23 07:23:20;;;;;;;29.20;21.30;;;10.90;65.60;;;;;;5021202;28;20030;-82
2021/04/23 07:25:47;;;;;;;30.23;22.83;;;11.00;65.20;;;;;;5031083;28;20030;-82
2021/04/23 07:28:12;;;;;;;30.53;21.73;;;11.30;65.20;;;;;;5028072;28;20025;-82
2021/04/23 07:30:43;;;;;;;29.70;23.00;;;11.40;65.10;;;;;;5031392;28;20547;-82
2021/04/23 07:33:12;;;;;;;32.37;21.67;;;11.60;64.90;;;;;;5026230;28;20044;-83
2021/04/23 07:35:40;;;;;;;33.10;20.93;;;11.70;64.70;;;;;;5017427;28;20057;-82
2021/04/23 07:38:12;;;;;;;29.97;21.70;;;11.80;64.50;;;;;;5020249;28;20392;-82
2021/04/23 07:40:38;;;;;;;29.65;21.05;;;11.90;64.10;;;;;;5031215;28;20477;-82
2021/04/23 07:43:04;;;;;;;32.93;21.90;;;11.90;63.70;;;;;;5034872;28;20030;-82
2021/04/23 07:45:30;;;;;;;28.67;21.37;;;11.90;63.70;;;;;;5022378;28;20018;-82
2021/04/23 07:47:57;;;;;;;31.50;22.10;;;11.90;63.50;;;;;;5035405;28;20473;-82
2021/04/23 07:50:37;;;;;;;29.97;21.10;;;12.00;63.50;;;;;;5034430;28;20053;-83
2021/04/23 07:53:09;;;;;;;32.57;21.03;;;12.10;62.70;;;;;;5030165;28;20025;-83
2021/04/23 07:55:35;;;;;;;30.83;20.02;;;12.20;62.80;;;;;;5026923;28;20041;-82
2021/04/23 07:58:00;;;;;;;30.87;21.07;;;12.30;62.70;;;;;;5034888;28;20078;-83
2021/04/23 08:00:26;;;;;;;28.07;22.07;;;12.50;62.70;;;;;;5033390;28;20557;-82
2021/04/23 08:02:54;;;;;;;31.20;20.87;;;12.70;62.50;;;;;;5035739;28;20049;-82
2021/04/23 08:05:27;;;;;;;30.70;19.93;;;12.80;62.10;;;;;;5023001;28;20451;-83
2021/04/23 08:07:53;;;;;;;32.63;20.10;;;13.10;62.20;;;;;;5029719;28;20061;-83
2021/04/23 08:10:20;;;;;;;28.90;20.60;;;13.50;61.20;;;;;;5031648;28;20516;-82
2021/04/23 08:12:48;;;;;;;27.47;20.87;;;13.50;60.70;;;;;;5032945;28;20079;-82
2021/04/23 08:15:24;;;;;;;28.70;20.83;;;13.50;60.10;;;;;;5032716;28;20076;-83
2021/04/23 08:17:55;;;;;;;26.87;20.07;;;13.60;60.10;;;;;;5027579;28;20025;-83
2021/04/23 08:20:25;;;;;;;25.90;19.17;;;13.70;60.20;;;;;;5036024;28;20029;-83
2021/04/23 08:22:54;;;;;;;26.30;19.80;;;13.80;60.30;;;;;;5034227;28;20021;-83
2021/04/23 08:25:20;;;;;;;30.10;20.97;;;14.10;60.00;;;;;;5019759;28;20198;-83
2021/04/23 08:27:55;;;;;;;25.37;18.57;;;14.50;59.30;;;;;;5025342;28;20029;-83
2021/04/23 08:30:26;;;;;;;27.33;19.90;;;14.70;58.90;;;;;;5027708;28;20039;-83
2021/04/23 08:32:52;;;;;;;26.13;19.67;;;14.70;58.30;;;;;;5026529;28;20028;-83
2021/04/23 08:35:18;;;;;;;23.83;18.20;;;14.60;58.20;;;;;;5034694;28;20034;-83
2021/04/23 08:37:44;;;;;;;29.20;20.30;;;14.70;57.80;;;;;;5023040;28;20041;-83
2021/04/23 08:40:12;;;;;;;24.40;18.57;;;14.70;57.00;;;;;;5034207;28;20021;-83
2021/04/23 08:42:38;;;;;;;22.27;17.73;;;14.60;57.50;;;;;;5034472;28;20018;-82
2021/04/23 08:45:09;;;;;;;25.10;19.67;;;14.80;57.00;;;;;;5030563;28;20080;-83
2021/04/23 08:47:37;;;;;;;22.83;18.13;;;14.90;56.10;;;;;;5034290;28;20030;-83
2021/04/23 08:50:04;;;;;;;21.10;15.93;;;15.00;56.30;;;;;;5033450;28;20496;-83
2021/04/23 08:52:31;;;;;;;26.17;19.03;;;15.20;56.30;;;;;;5032727;28;20025;-83
2021/04/23 08:54:56;;;;;;;23.03;18.63;;;15.30;55.80;;;;;;5014934;28;20060;-83
2021/04/23 08:57:23;;;;;;;18.73;16.38;;;15.30;55.70;;;;;;5022615;28;20029;-83
2021/04/23 08:59:52;;;;;;;25.20;18.35;;;15.40;55.40;;;;;;5031044;28;20168;-83
2021/04/23 09:02:18;;;;;;;20.48;17.73;;;15.50;54.70;;;;;;5033537;28;20076;-83
2021/04/23 09:04:44;;;;;;;22.80;17.73;;;15.40;55.00;;;;;;5024928;28;20025;-83
2021/04/23 09:07:10;;;;;;;21.83;18.67;;;15.50;55.30;;;;;;5033031;28;20098;-83
2021/04/23 09:09:40;;;;;;;23.35;17.92;;;15.60;55.40;;;;;;5028237;28;20057;-83
2021/04/23 09:12:43;;;;;;;19.67;15.98;;;15.70;55.30;;;;;;5018441;28;20469;-83
2021/04/23 09:15:47;;;;;;;21.77;16.60;;;15.80;55.00;;;;;;5033128;28;20029;-83
2021/04/23 09:18:15;;;;;;;20.52;16.38;;;15.90;54.50;;;;;;5020506;28;20037;-83
2021/04/23 09:20:45;;;;;;;22.42;16.25;;;16.00;54.80;;;;;;5052577;23;20058;-83
2021/04/23 09:23:14;;;;;;;22.73;15.98;;;16.10;54.90;;;;;;5024534;28;20029;-84
2021/04/23 09:25:48;;;;;;;19.27;16.08;;;16.40;54.70;;;;;;5042953;23;20045;-88
2021/04/23 09:28:31;;;;;;;18.30;15.43;;;16.60;53.90;;;;;;5030343;28;20041;-84
2021/04/23 09:30:56;;;;;;;24.67;16.48;;;16.80;53.50;;;;;;5023226;28;20029;-83
2021/04/23 09:33:25;;;;;;;17.85;15.07;;;17.00;53.00;;;;;;5033128;28;20039;-83
2021/04/23 09:35:51;;;;;;;22.80;15.98;;;17.20;52.80;;;;;;5033441;28;20036;-83
2021/04/23 09:38:17;;;;;;;17.73;13.80;;;17.20;51.90;;;;;;5020203;28;20060;-82
2021/04/23 09:40:43;;;;;;;21.17;15.55;;;17.30;51.70;;;;;;5023194;28;20041;-83
2021/04/23 09:43:09;;;;;;;16.80;14.95;;;17.30;51.50;;;;;;5038609;23;20053;-84
2021/04/23 09:45:48;;;;;;;20.50;15.63;;;17.50;51.40;;;;;;5028249;28;20022;-84
2021/04/23 09:48:24;;;;;;;22.45;16.48;;;17.50;51.20;;;;;;5028256;28;20037;-86
2021/04/23 09:50:52;;;;;;;20.90;15.50;;;17.60;51.60;;;;;;5031179;28;20036;-85
2021/04/23 09:53:27;;;;;;;20.10;15.82;;;17.70;51.50;;;;;;5032075;28;20053;-85
2021/04/23 09:55:55;;;;;;;19.92;14.82;;;17.70;51.00;;;;;;5032573;28;20048;-85
2021/04/23 09:58:21;;;;;;;23.65;16.52;;;17.70;51.10;;;;;;5021548;28;20430;-84
2021/04/23 10:00:56;;;;;;;20.90;16.85;;;17.70;50.70;;;;;;5021900;23;20084;-84
2021/04/23 10:03:55;;;;;;;20.92;17.70;;;17.80;50.50;;;;;;5144429;23;20049;-82
2021/04/23 10:06:23;;;;;;;27.38;18.38;;;17.80;49.90;;;;;;5016472;28;20021;-83
2021/04/23 10:11:42;;;;;;;22.77;17.13;;;18.00;49.60;;;;;;5050826;28;20045;-85
2021/04/23 10:14:13;;;;;;;22.75;17.58;;;18.20;48.90;;;;;;5035397;28;20079;-85
2021/04/23 10:16:39;;;;;;;26.15;18.15;;;18.20;48.80;;;;;;5035362;28;20021;-85
2021/04/23 10:19:05;;;;;;;21.42;16.83;;;18.20;48.80;;;;;;5049582;28;20456;-85
2021/04/23 10:21:31;;;;;;;19.88;16.75;;;18.30;48.90;;;;;;5034728;28;20116;-85
2021/04/23 10:23:59;;;;;;;21.27;15.50;;;18.10;48.30;;;;;;5035455;28;20116;-85
2021/04/23 10:26:26;;;;;;;16.60;14.60;;;18.20;48.30;;;;;;5034558;28;20036;-85
2021/04/23 10:28:53;;;;;;;20.73;15.57;;;18.30;47.60;;;;;;5052967;28;20043;-85
2021/04/23 10:31:19;;;;;;;18.67;13.82;;;18.30;47.40;;;;;;5025461;28;20053;-84
2021/04/23 10:33:45;;;;;;;17.95;14.45;;;18.40;47.60;;;;;;5034861;28;20434;-84
2021/04/23 10:36:10;;;;;;;16.77;13.63;;;18.50;47.20;;;;;;5034022;28;20044;-85
2021/04/23 10:38:38;;;;;;;16.90;14.88;;;18.60;46.80;;;;;;5036971;28;20078;-84
2021/04/23 10:41:10;;;;;;;18.38;14.82;;;18.70;46.40;;;;;;5054676;28;20017;-84
2021/04/23 10:43:48;;;;;;;18.80;13.75;;;18.70;45.50;;;;;;5035586;28;20017;-84
2021/04/23 10:46:15;;;;;;;17.73;12.57;;;18.60;45.40;;;;;;5038077;28;20458;-85
2021/04/23 10:48:46;;;;;;;16.50;13.48;;;18.80;45.60;;;;;;5035506;28;20083;-85
2021/04/23 10:51:18;;;;;;;14.10;12.23;;;18.90;45.20;;;;;;5034287;28;20108;-85
2021/04/23 10:53:46;;;;;;;20.03;12.77;;;19.00;44.90;;;;;;5034880;28;20032;-85
2021/04/23 10:56:33;;;;;;;13.60;11.73;;;19.10;45.00;;;;;;5034760;28;20267;-85
2021/04/23 10:59:06;;;;;;;17.13;12.98;;;19.20;44.50;;;;;;5034378;28;20116;-85
2021/04/23 11:01:34;;;;;;;15.85;11.80;;;19.30;44.30;;;;;;5033246;28;20043;-85
2021/04/23 11:04:17;;;;;;;15.18;11.85;;;19.30;44.20;;;;;;5032903;28;20067;-85
2021/04/23 11:06:45;;;;;;;14.88;12.35;;;19.50;43.70;;;;;;5030820;28;20021;-85
2021/04/23 11:09:12;;;;;;;16.27;11.18;;;19.50;43.20;;;;;;5025434;28;20171;-85
2021/04/23 11:11:42;;;;;;;14.38;11.35;;;19.60;43.00;;;;;;5029481;28;20063;-85
2021/04/23 11:14:28;;;;;;;17.02;11.38;;;19.60;42.50;;;;;;5052120;28;20045;-85
2021/04/23 11:17:15;;;;;;;13.55;10.52;;;19.70;42.00;;;;;;5026329;28;20078;-85
2021/04/23 11:19:40;;;;;;;13.07;10.02;;;19.70;42.10;;;;;;5031605;28;20071;-85
2021/04/23 11:22:09;;;;;;;11.57;9.75;;;19.70;42.10;;;;;;5048937;28;20484;-85
2021/04/23 11:24:35;;;;;;;11.05;9.65;;;19.80;42.00;;;;;;5032127;28;20036;-85
2021/04/23 11:27:06;;;;;;;14.82;10.38;;;19.80;41.70;;;;;;5051475;28;20025;-85
2021/04/23 11:29:51;;;;;;;13.90;10.10;;;19.90;41.40;;;;;;5030065;28;20029;-85
2021/04/23 11:32:20;;;;;;;15.68;8.57;;;20.00;40.40;;;;;;5032380;28;20111;-84
2021/04/23 11:34:51;;;;;;;9.75;8.00;;;20.00;40.30;;;;;;5032726;28;20025;-85
2021/04/23 11:37:29;;;;;;;12.10;7.82;;;20.00;40.10;;;;;;5037404;28;20024;-85
2021/04/23 11:40:13;;;;;;;12.45;8.30;;;20.00;39.50;;;;;;5050088;28;20025;-85
2021/04/23 11:42:44;;;;;;;6.60;5.10;;;20.00;38.90;;;;;;5023693;28;20024;-85
2021/04/23 11:45:14;;;;;;;7.30;4.60;;;19.90;37.60;;;;;;5050477;28;20025;-84
2021/04/23 11:47:51;;;;;;;9.02;5.47;;;19.60;36.40;;;;;;5050349;28;20059;-85
2021/04/23 11:50:32;;;;;;;7.90;5.15;;;19.70;36.20;;;;;;5032090;28;20885;-85
2021/04/23 11:53:06;;;;;;;6.65;5.32;;;19.80;36.30;;;;;;5031531;28;20423;-84
2021/04/23 11:55:35;;;;;;;8.65;4.82;;;19.90;36.00;;;;;;5028632;28;20072;-84
2021/04/23 11:58:08;;;;;;;6.43;4.55;;;20.00;36.40;;;;;;5031298;28;20112;-84
2021/04/23 12:00:36;;;;;;;9.23;4.55;;;20.20;36.10;;;;;;5034149;28;20123;-85
2021/04/23 12:03:09;;;;;;;7.50;4.32;;;20.30;36.00;;;;;;5034261;28;20365;-84
2021/04/23 12:05:46;;;;;;;6.20;3.63;;;20.40;35.50;;;;;;5033146;28;20056;-85
2021/04/23 12:08:18;;;;;;;7.75;4.00;;;20.40;35.10;;;;;;5028857;28;20025;-85
2021/04/23 12:10:52;;;;;;;5.82;3.45;;;20.40;33.80;;;;;;5030574;28;20096;-85
2021/04/23 12:13:26;;;;;;;4.65;2.67;;;20.20;32.10;;;;;;5030759;28;20430;-85
2021/04/23 12:15:56;;;;;;;4.85;3.35;;;20.10;32.50;;;;;;5031381;28;20040;-85
2021/04/23 12:18:21;;;;;;;7.72;4.85;;;20.20;33.20;;;;;;5030544;28;20032;-85
2021/04/23 12:20:50;;;;;;;6.70;3.92;;;20.40;33.00;;;;;;5029817;28;20029;-84
2021/04/23 12:23:21;;;;;;;4.88;3.67;;;20.40;32.90;;;;;;5032003;28;20042;-84
2021/04/23 12:25:50;;;;;;;6.57;4.25;;;20.40;33.20;;;;;;5030334;28;20488;-85
2021/04/23 12:28:33;;;;;;;8.23;4.60;;;20.60;32.80;;;;;;5032449;28;20029;-84
2021/04/23 12:31:18;;;;;;;;;;;20.50;33.20;;;;;;5034900;28;20104;-84
2021/04/23 12:33:45;;;;;;;7.30;4.78;;;20.50;33.70;;;;;;5035414;28;19905;-85
2021/04/23 12:36:11;;;;;;;9.05;4.97;;;20.50;33.70;;;;;;5033187;28;20106;-85
2021/04/23 12:38:39;;;;;;;8.25;4.68;;;20.50;33.70;;;;;;5033879;28;20112;-84
2021/04/23 12:41:30;;;;;;;8.50;5.13;;;20.50;33.40;;;;;;5034834;28;20028;-84
2021/04/23 12:43:58;;;;;;;7.13;4.97;;;20.50;33.20;;;;;;5033799;28;20079;-84
2021/04/23 12:46:31;;;;;;;9.85;5.20;;;20.50;33.10;;;;;;5034038;28;20427;-84
2021/04/23 12:49:16;;;;;;;7.35;4.22;;;20.50;33.00;;;;;;5035071;28;20369;-84